Pleasant Hill, Illinois
Current Conditions -  °F | °C
As of 8:15 PM on Friday 24 Oct 2014 (Local Time) from KPPQ Reporting Station
Clear Clear  
Wind Chill: 18°   Ceiling: Unl
Heat Index: 18°   Visibility: 10mi
Dew Point: 12°   Wind: 6mph
Humidity: 67%   Direction: 190°S
Pressure: 29.97"   Gusts: NA
Location:  39.44°N, 90.87°W
Report Text: KPPQ 250115Z AUTO 19005KT 10SM CLR 18/12 A2997 RMK AO2 T01780116
Loading
Personal Weather Stations






























Interactive Weather Map
Tropical Storm Tracking
New forecast layout! Learn more

10-Day Weather Forecast

Advertisements
Track Severe Weather on mobile